createdAt,value
2023-11-30T00:00:19.160Z,29.977743
2023-11-30T00:05:22.795Z,30.173744
2023-11-30T00:10:19.260Z,30.562773
2023-11-30T00:15:19.451Z,30.369742
2023-11-30T00:20:19.306Z,30.467740
2023-11-30T00:25:19.559Z,30.467740
2023-11-30T00:30:19.252Z,30.369742
2023-11-30T00:35:19.746Z,30.271743
2023-11-30T00:40:19.956Z,30.562773
2023-11-30T00:45:19.188Z,30.366507
2023-11-30T00:50:19.264Z,30.366507
2023-11-30T00:55:17.346Z,30.464640
2023-11-30T01:00:17.564Z,30.464640
2023-11-30T01:05:17.293Z,30.369742
2023-11-30T01:10:17.499Z,30.857171
2023-11-30T01:15:17.702Z,31.151564
2023-11-30T01:20:17.293Z,31.249694
2023-11-30T01:25:17.404Z,31.544082
2023-11-30T01:30:17.425Z,31.740339
2023-11-30T01:35:17.214Z,31.643686
2023-11-30T01:40:17.956Z,31.347678
2023-11-30T01:45:18.069Z,31.249820
2023-11-30T01:50:18.506Z,31.545693
2023-11-30T01:55:17.415Z,31.251711
2023-11-30T02:00:17.485Z,31.642211
2023-11-30T02:05:17.584Z,31.251711
2023-11-30T02:10:18.223Z,31.251711
2023-11-30T02:15:17.553Z,30.956245
2023-11-30T02:20:17.369Z,31.153716
2023-11-30T02:25:17.853Z,31.249694
2023-11-30T02:30:17.611Z,31.249694
2023-11-30T02:35:17.463Z,31.151564
2023-11-30T02:40:17.652Z,31.151564
2023-11-30T02:45:17.866Z,30.857171
2023-11-30T02:50:17.517Z,30.759039
2023-11-30T02:55:17.896Z,30.759039
2023-11-30T03:00:17.704Z,30.467740
2023-11-30T03:05:17.574Z,30.660906
2023-11-30T03:10:17.732Z,30.271743
2023-11-30T03:15:17.701Z,30.075744
2023-11-30T03:20:17.925Z,30.268372
2023-11-30T03:25:18.110Z,29.879743
2023-11-30T03:30:17.610Z,29.879743
2023-11-30T03:35:17.740Z,29.781742
2023-11-30T03:40:17.679Z,30.457725
2023-11-30T03:45:18.504Z,30.268372
2023-11-30T03:50:19.791Z,30.170238
2023-11-30T03:55:17.806Z,30.072103
2023-11-30T04:00:17.784Z,29.875832
2023-11-30T04:05:18.071Z,29.679559
2023-11-30T04:10:17.931Z,29.679559
2023-11-30T04:15:17.828Z,29.868115
2023-11-30T04:20:17.712Z,29.868115
2023-11-30T04:25:18.394Z,29.769845
2023-11-30T04:30:17.856Z,29.868115
2023-11-30T04:35:17.913Z,29.868115
2023-11-30T04:40:18.166Z,29.679559
2023-11-30T04:45:17.927Z,30.064653
2023-11-30T04:50:17.871Z,29.875832
2023-11-30T04:55:17.854Z,30.072103
2023-11-30T05:00:19.521Z,29.781742
2023-11-30T05:05:18.825Z,30.170238
2023-11-30T05:10:19.120Z,30.170238
2023-11-30T05:15:19.145Z,30.072103
2023-11-30T05:20:18.969Z,30.555992
2023-11-30T05:25:19.324Z,30.654259
2023-11-30T05:30:18.988Z,30.654259
2023-11-30T05:35:19.564Z,30.555992
2023-11-30T05:40:19.579Z,30.654259
2023-11-30T05:45:20.879Z,30.366507
2023-11-30T05:50:20.744Z,30.464640
2023-11-30T05:55:19.055Z,30.366507
2023-11-30T06:00:19.416Z,30.170238
2023-11-30T06:05:18.961Z,29.973968
2023-11-30T06:10:19.547Z,29.683740
2023-11-30T06:15:19.204Z,29.487735
2023-11-30T06:20:19.084Z,29.389732
2023-11-30T06:25:19.484Z,29.679559
2023-11-30T06:30:19.136Z,29.777696
2023-11-30T06:35:19.890Z,29.777696
2023-11-30T06:40:19.319Z,29.777696
2023-11-30T06:45:19.622Z,29.679559
2023-11-30T06:50:19.457Z,29.291729
2023-11-30T06:55:17.515Z,29.095720
2023-11-30T07:00:17.271Z,28.899710
2023-11-30T07:05:17.233Z,28.801705
2023-11-30T07:10:17.193Z,28.894450
2023-11-30T07:15:17.285Z,28.796310
2023-11-30T07:20:17.558Z,28.983672
2023-11-30T07:25:17.321Z,28.983672
2023-11-30T07:30:17.367Z,29.081945
2023-11-30T07:35:17.678Z,29.180218
2023-11-30T07:40:17.466Z,28.796310
2023-11-30T07:45:18.356Z,29.081945
2023-11-30T07:50:19.522Z,28.796310
2023-11-30T07:55:17.697Z,28.507685
2023-11-30T08:00:17.314Z,29.180218
2023-11-30T08:05:17.397Z,29.081945
2023-11-30T08:10:17.711Z,29.081945
2023-11-30T08:15:17.290Z,29.081945
2023-11-30T08:20:17.754Z,28.600027
2023-11-30T08:25:18.026Z,28.501886
2023-11-30T08:30:17.521Z,28.688851
2023-11-30T08:35:17.358Z,28.501886
2023-11-30T08:40:20.277Z,28.403743
2023-11-30T08:45:17.817Z,28.305601
2023-11-30T08:50:17.520Z,28.305601
2023-11-30T08:55:17.530Z,28.305601
2023-11-30T09:00:20.405Z,28.305601
2023-11-30T09:05:17.714Z,28.403743
2023-11-30T09:10:17.776Z,28.213660
2023-11-30T09:15:18.955Z,28.501886
2023-11-30T09:20:17.679Z,28.600027
2023-11-30T09:25:18.172Z,28.311669
2023-11-30T09:30:17.754Z,28.600027
2023-11-30T09:35:18.022Z,28.698169
2023-11-30T09:40:17.969Z,28.698169
2023-11-30T09:45:17.708Z,28.698169
2023-11-30T09:50:18.589Z,28.600027
2023-11-30T09:55:17.925Z,28.311669
2023-11-30T10:00:17.804Z,28.600027
2023-11-30T10:05:17.810Z,28.600027
2023-11-30T10:10:18.441Z,28.600027
2023-11-30T10:15:17.803Z,28.600027
2023-11-30T10:20:17.749Z,28.885399
2023-11-30T10:25:17.846Z,28.600027
2023-11-30T10:30:17.819Z,28.600027
2023-11-30T10:35:17.877Z,28.600027
2023-11-30T10:40:18.142Z,28.600027
2023-11-30T10:45:18.054Z,28.983672
2023-11-30T10:50:17.893Z,29.081945
2023-11-30T10:55:17.857Z,29.278490
2023-11-30T11:00:18.041Z,29.758268
2023-11-30T11:05:18.027Z,29.955071
2023-11-30T11:10:18.108Z,30.151873
2023-11-30T11:15:18.114Z,30.250274
2023-11-30T11:20:19.244Z,29.966384
2023-11-30T11:25:20.711Z,29.868115
2023-11-30T11:30:17.992Z,29.868115
2023-11-30T11:35:17.951Z,29.769845
2023-11-30T11:40:18.120Z,29.385146
2023-11-30T11:45:18.189Z,29.385146
2023-11-30T11:50:20.317Z,29.671575
2023-11-30T11:55:18.412Z,29.385146
2023-11-30T12:00:18.435Z,29.287008
2023-11-30T12:05:18.173Z,29.287008
2023-11-30T12:10:18.313Z,29.955071
2023-11-30T12:15:18.378Z,29.769845
2023-11-30T12:20:18.349Z,30.151873
2023-11-30T12:25:18.634Z,29.966384
2023-11-30T12:30:18.041Z,29.875832
2023-11-30T12:35:18.241Z,29.875832
2023-11-30T12:40:18.487Z,30.072103
2023-11-30T12:45:18.198Z,30.555992
2023-11-30T12:50:18.217Z,30.654259
2023-11-30T12:55:19.832Z,30.850791
2023-11-30T13:00:18.500Z,30.949056
2023-11-30T13:05:18.355Z,31.047321
2023-11-30T13:10:18.831Z,31.627841
2023-11-30T13:15:18.288Z,32.304778
2023-11-30T13:20:18.236Z,32.501825
2023-11-30T13:25:18.649Z,32.513383
2023-11-30T13:30:19.369Z,32.808557
2023-11-30T13:35:18.291Z,33.005337
2023-11-30T13:40:18.484Z,33.398894
2023-11-30T13:45:19.301Z,33.881119
2023-11-30T13:50:30.382Z,33.890832
2023-11-30T13:55:18.405Z,34.087605
2023-11-30T14:00:18.412Z,34.570741
2023-11-30T14:05:18.667Z,34.866288
2023-11-30T14:10:18.567Z,34.579530
2023-11-30T14:15:18.543Z,34.388096
2023-11-30T14:20:18.452Z,34.579530
2023-11-30T14:25:18.766Z,34.191593
2023-11-30T14:30:18.699Z,34.289844
2023-11-30T14:35:19.454Z,34.486347
2023-11-30T14:40:18.954Z,34.973063
2023-11-30T14:45:18.669Z,35.366591
2023-11-30T14:50:18.635Z,35.661733
2023-11-30T14:55:18.750Z,35.858492
2023-11-30T15:00:18.704Z,35.370589
2023-11-30T15:05:18.488Z,34.880213
2023-11-30T15:10:19.044Z,35.272342
2023-11-30T15:15:18.798Z,35.272666
2023-11-30T15:20:20.352Z,35.567002
2023-11-30T15:25:19.447Z,35.861333
2023-11-30T15:30:18.867Z,36.057552
2023-11-30T15:35:18.654Z,36.253770
2023-11-30T15:40:19.603Z,36.150866
2023-11-30T15:45:21.424Z,36.940517
2023-11-30T15:50:20.353Z,36.631247
2023-11-30T15:55:18.957Z,36.826907
2023-11-30T16:00:18.941Z,37.120394
2023-11-30T16:05:19.020Z,37.218222
2023-11-30T16:10:18.874Z,37.511703
2023-11-30T16:15:18.680Z,37.609529
2023-11-30T16:20:19.331Z,38.306132
2023-11-30T16:25:18.970Z,38.502054
2023-11-30T16:30:18.796Z,38.392120
2023-11-30T16:35:18.763Z,38.795934
2023-11-30T16:40:18.880Z,38.489942
2023-11-30T16:45:19.219Z,38.697974
2023-11-30T16:50:18.898Z,38.489942
2023-11-30T16:55:19.924Z,39.294919
2023-11-30T17:00:18.933Z,38.783404
2023-11-30T17:05:18.854Z,38.991852
2023-11-30T17:10:19.153Z,39.187767
2023-11-30T17:15:18.912Z,39.393014
2023-11-30T17:20:18.918Z,38.991852
2023-11-30T17:25:19.048Z,38.991852
2023-11-30T17:30:19.549Z,39.491108
2023-11-30T17:35:19.244Z,39.589202
2023-11-30T17:40:19.185Z,39.785389
2023-11-30T17:45:20.565Z,40.282459
2023-11-30T17:50:21.144Z,40.086004
2023-11-30T17:55:19.972Z,39.687296
2023-11-30T18:00:19.037Z,40.086004
2023-11-30T18:05:19.838Z,40.184232
2023-11-30T18:10:19.554Z,40.282459
2023-11-30T18:15:19.071Z,40.973582
2023-11-30T18:20:19.328Z,40.875359
2023-11-30T18:25:19.342Z,41.170570
2023-11-30T18:30:19.127Z,40.577140
2023-11-30T18:35:19.134Z,40.776998
2023-11-30T18:40:19.962Z,41.170570
2023-11-30T18:45:19.258Z,40.875359
2023-11-30T18:50:17.213Z,40.577140
2023-11-30T18:55:17.218Z,40.675366
2023-11-30T19:00:17.528Z,41.072079
2023-11-30T19:05:17.278Z,40.773592
2023-11-30T19:10:17.812Z,40.773592
2023-11-30T19:15:17.872Z,40.773592
2023-11-30T19:20:17.288Z,41.068267
2023-11-30T19:25:17.641Z,41.362938
2023-11-30T19:30:17.609Z,41.760589
2023-11-30T19:35:17.493Z,41.256733
2023-11-30T19:40:17.449Z,41.559383
2023-11-30T19:45:17.333Z,41.158647
2023-11-30T19:50:19.131Z,41.060560
2023-11-30T19:55:17.489Z,41.760589
2023-11-30T20:00:17.324Z,41.158647
2023-11-30T20:05:17.273Z,41.158647
2023-11-30T20:10:17.574Z,41.060560
2023-11-30T20:15:17.277Z,41.256733
2023-11-30T20:20:17.447Z,41.452905
2023-11-30T20:25:18.195Z,41.952269
2023-11-30T20:30:17.417Z,41.649076
2023-11-30T20:35:17.519Z,41.649076
2023-11-30T20:40:17.970Z,41.244773
2023-11-30T20:45:17.473Z,41.854048
2023-11-30T20:50:17.604Z,41.854048
2023-11-30T20:55:17.709Z,41.755827
2023-11-30T21:00:17.887Z,41.657605
2023-11-30T21:05:17.527Z,41.657605
2023-11-30T21:10:17.729Z,41.559383
2023-11-30T21:15:17.614Z,41.559383
2023-11-30T21:20:17.520Z,41.461160
2023-11-30T21:25:17.865Z,41.760589
2023-11-30T21:30:17.585Z,41.461160
2023-11-30T21:35:18.252Z,41.760589
2023-11-30T21:40:17.856Z,41.461160
2023-11-30T21:45:18.043Z,42.253979
2023-11-30T21:50:19.303Z,42.253979
2023-11-30T21:55:18.160Z,41.957303
2023-11-30T22:00:17.828Z,42.055659
2023-11-30T22:05:26.454Z,41.854048
2023-11-30T22:10:18.086Z,42.154015
2023-11-30T22:15:19.090Z,42.154015
2023-11-30T22:20:17.727Z,42.450958
2023-11-30T22:25:17.880Z,42.154015
2023-11-30T22:30:17.872Z,42.055659
2023-11-30T22:35:17.844Z,43.036028
2023-11-30T22:40:17.972Z,42.744941
2023-11-30T22:45:18.433Z,43.036028
2023-11-30T22:50:17.922Z,42.937276
2023-11-30T22:55:18.454Z,43.126514
2023-11-30T23:00:17.949Z,43.411730
2023-11-30T23:05:17.934Z,43.411730
2023-11-30T23:10:18.678Z,43.694227
2023-11-30T23:15:17.793Z,43.694227
2023-11-30T23:20:18.432Z,43.694227
2023-11-30T23:25:18.010Z,43.312719
2023-11-30T23:30:17.966Z,43.495950
2023-11-30T23:35:17.877Z,43.027632
2023-11-30T23:40:18.248Z,43.213708
2023-11-30T23:45:18.970Z,43.213708
2023-11-30T23:50:20.188Z,43.495950
2023-11-30T23:55:18.278Z,43.213708
